createdAt,value
2022-09-26T00:01:37.969Z,96845.41
2022-09-26T00:04:23.269Z,96845.06
2022-09-26T00:06:55.069Z,96835.91
2022-09-26T00:09:26.414Z,96839.81
2022-09-26T00:11:54.226Z,96830.22
2022-09-26T00:14:26.160Z,96827.06
2022-09-26T00:16:55.113Z,96829.81
2022-09-26T00:19:23.021Z,96836.44
2022-09-26T00:21:50.295Z,96839.69
2022-09-26T00:24:17.668Z,96846.53
2022-09-26T00:26:45.003Z,96849.38
2022-09-26T00:29:16.517Z,96857.34
2022-09-26T00:31:46.140Z,96864.19
2022-09-26T00:34:17.947Z,96856.97
2022-09-26T00:36:45.294Z,96839.44
2022-09-26T00:39:15.834Z,96831.63
2022-09-26T00:41:44.040Z,96828.09
2022-09-26T00:44:50.134Z,96813.25
2022-09-26T00:47:26.993Z,96816.34
2022-09-26T00:50:26.750Z,96829.41
2022-09-26T00:53:06.997Z,96832.03
2022-09-26T00:55:45.331Z,96837.88
2022-09-26T00:58:43.125Z,96839.81
2022-09-26T01:01:11.027Z,96821.81
2022-09-26T01:03:44.570Z,96823.06
2022-09-26T01:06:12.715Z,96812.09
2022-09-26T01:09:09.001Z,96800.44
2022-09-26T01:11:42.415Z,96799.50
2022-09-26T01:14:13.489Z,96782.19
2022-09-26T01:16:48.985Z,96781.38
2022-09-26T01:19:31.140Z,96787.41
2022-09-26T01:22:19.337Z,96786.09
2022-09-26T01:25:11.759Z,96780.19
2022-09-26T01:28:00.087Z,96809.09
2022-09-26T01:30:42.674Z,96796.03
2022-09-26T01:33:09.876Z,96770.03
2022-09-26T01:36:17.915Z,96769.84
2022-09-26T01:39:23.429Z,96779.50
2022-09-26T01:42:18.350Z,96794.44
2022-09-26T01:45:26.696Z,96792.38
2022-09-26T01:48:13.649Z,96777.22
2022-09-26T01:51:21.333Z,96767.91
2022-09-26T01:54:03.084Z,96756.28
2022-09-26T01:56:40.574Z,96747.06
2022-09-26T01:59:30.808Z,96758.63
2022-09-26T02:02:08.512Z,96759.00
2022-09-26T02:04:44.729Z,96750.25
2022-09-26T02:07:32.215Z,96749.44
2022-09-26T02:10:13.406Z,96736.53
2022-09-26T02:12:45.802Z,96726.63
2022-09-26T02:15:19.884Z,96719.28
2022-09-26T02:17:58.534Z,96728.91
2022-09-26T02:20:38.319Z,96721.06
2022-09-26T02:23:06.172Z,96708.47
2022-09-26T02:25:34.634Z,96717.47
2022-09-26T02:28:03.948Z,96720.44
2022-09-26T02:30:31.202Z,96724.94
2022-09-26T02:33:02.190Z,96719.88
2022-09-26T02:35:48.070Z,96731.25
2022-09-26T02:38:15.124Z,96725.19
2022-09-26T02:40:56.786Z,96720.44
2022-09-26T02:44:09.268Z,96722.38
2022-09-26T02:47:17.708Z,96738.28
2022-09-26T02:50:09.008Z,96727.41
2022-09-26T02:53:02.484Z,96729.66
2022-09-26T02:55:51.881Z,96733.75
2022-09-26T02:58:35.170Z,96722.69
2022-09-26T03:01:16.017Z,96709.84
2022-09-26T03:04:06.358Z,96718.31
2022-09-26T03:06:47.113Z,96714.22
2022-09-26T03:09:17.948Z,96711.16
2022-09-26T03:11:48.773Z,96706.56
2022-09-26T03:14:21.292Z,96706.72
2022-09-26T03:16:51.402Z,96697.13
2022-09-26T03:19:32.575Z,96683.09
2022-09-26T03:22:00.149Z,96678.50
2022-09-26T03:24:30.302Z,96681.13
2022-09-26T03:27:04.528Z,96673.47
2022-09-26T03:29:33.123Z,96677.59
2022-09-26T03:32:04.565Z,96667.22
2022-09-26T03:34:35.119Z,96670.19
2022-09-26T03:37:02.253Z,96671.81
2022-09-26T03:39:33.304Z,96670.88
2022-09-26T03:42:02.159Z,96672.78
2022-09-26T03:44:30.328Z,96662.88
2022-09-26T03:47:02.329Z,96653.25
2022-09-26T03:49:30.167Z,96636.59
2022-09-26T03:51:57.256Z,96628.47
2022-09-26T03:54:24.433Z,96626.16
2022-09-26T03:56:51.552Z,96626.94
2022-09-26T03:59:18.629Z,96619.59
2022-09-26T04:01:45.781Z,96628.84
2022-09-26T04:04:15.409Z,96625.28
2022-09-26T04:06:45.014Z,96628.53
2022-09-26T04:09:16.806Z,96634.53
2022-09-26T04:11:44.213Z,96636.84
2022-09-26T04:14:11.381Z,96636.22
2022-09-26T04:16:38.596Z,96634.09
2022-09-26T04:19:08.351Z,96634.72
2022-09-26T04:21:43.025Z,96637.47
2022-09-26T04:24:17.820Z,96628.34
2022-09-26T04:26:45.681Z,96627.72
2022-09-26T04:29:13.477Z,96636.34
2022-09-26T04:31:41.257Z,96638.13
2022-09-26T04:34:11.637Z,96647.28
2022-09-26T04:36:39.284Z,96646.72
2022-09-26T04:39:06.820Z,96644.13
2022-09-26T04:41:34.020Z,96652.81
2022-09-26T04:44:06.324Z,96654.44
2022-09-26T04:46:34.018Z,96658.84
2022-09-26T04:49:02.000Z,96655.50
2022-09-26T04:51:32.777Z,96661.88
2022-09-26T04:54:00.888Z,96662.75
2022-09-26T04:56:30.563Z,96665.56
2022-09-26T04:58:59.391Z,96656.31
2022-09-26T05:01:28.104Z,96648.34
2022-09-26T05:03:56.369Z,96637.59
2022-09-26T05:06:25.899Z,96637.84
2022-09-26T05:08:56.019Z,96650.69
2022-09-26T05:11:26.148Z,96658.38
2022-09-26T05:13:54.085Z,96649.69
2022-09-26T05:16:28.488Z,96652.22
2022-09-26T05:18:58.593Z,96650.44
2022-09-26T05:21:25.770Z,96647.50
2022-09-26T05:24:12.575Z,96641.63
2022-09-26T05:27:00.798Z,96634.13
2022-09-26T05:29:27.939Z,96630.25
2022-09-26T05:31:55.287Z,96627.81
2022-09-26T05:34:25.131Z,96623.06
2022-09-26T05:36:55.733Z,96612.63
2022-09-26T05:39:46.990Z,96622.91
2022-09-26T05:42:15.504Z,96633.44
2022-09-26T05:44:46.821Z,96625.66
2022-09-26T05:47:14.275Z,96625.22
2022-09-26T05:49:41.670Z,96628.91
2022-09-26T05:52:10.479Z,96639.78
2022-09-26T05:54:39.672Z,96639.63
2022-09-26T05:57:07.349Z,96629.91
2022-09-26T05:59:34.744Z,96626.84
2022-09-26T06:02:02.008Z,96627.63
2022-09-26T06:04:30.820Z,96625.38
2022-09-26T06:07:04.719Z,96629.94
2022-09-26T06:09:31.827Z,96633.13
2022-09-26T06:11:59.080Z,96626.06
2022-09-26T06:14:30.509Z,96633.34
2022-09-26T06:17:03.020Z,96646.81
2022-09-26T06:19:34.100Z,96654.91
2022-09-26T06:22:04.872Z,96650.34
2022-09-26T06:24:32.420Z,96651.53
2022-09-26T06:27:01.850Z,96649.09
2022-09-26T06:29:33.394Z,96657.59
2022-09-26T06:32:07.293Z,96645.59
2022-09-26T06:34:55.591Z,96662.00
2022-09-26T06:37:28.138Z,96655.72
2022-09-26T06:40:01.825Z,96661.38
2022-09-26T06:42:39.756Z,96651.00
2022-09-26T06:45:14.955Z,96655.06
2022-09-26T06:47:45.188Z,96648.97
2022-09-26T06:50:13.275Z,96649.06
2022-09-26T06:52:46.126Z,96655.22
2022-09-26T06:55:17.677Z,96648.13
2022-09-26T06:57:47.376Z,96656.22
2022-09-26T07:00:19.991Z,96652.56
2022-09-26T07:02:57.652Z,96658.53
2022-09-26T07:05:31.971Z,96670.31
2022-09-26T07:08:08.758Z,96667.81
2022-09-26T07:10:43.039Z,96682.00
2022-09-26T07:13:12.357Z,96689.56
2022-09-26T07:15:40.806Z,96690.25
2022-09-26T07:18:15.926Z,96694.84
2022-09-26T07:20:47.934Z,96698.97
2022-09-26T07:23:17.491Z,96698.41
2022-09-26T07:25:53.561Z,96712.94
2022-09-26T07:28:24.684Z,96721.66
2022-09-26T07:30:57.235Z,96714.13
2022-09-26T07:33:24.421Z,96712.56
2022-09-26T07:35:52.180Z,96703.56
2022-09-26T07:38:22.795Z,96687.56
2022-09-26T07:40:54.486Z,96696.91
2022-09-26T07:43:31.970Z,96694.97
2022-09-26T07:46:28.394Z,96699.97
2022-09-26T07:49:14.350Z,96702.84
2022-09-26T07:51:41.653Z,96700.91
2022-09-26T07:54:08.855Z,96705.13
2022-09-26T07:56:36.005Z,96721.53
2022-09-26T07:59:05.412Z,96729.88
2022-09-26T08:01:33.237Z,96732.47
2022-09-26T08:04:00.655Z,96733.75
2022-09-26T08:06:32.715Z,96728.72
2022-09-26T08:08:59.881Z,96732.56
2022-09-26T08:11:27.988Z,96732.50
2022-09-26T08:13:55.471Z,96739.97
2022-09-26T08:16:23.729Z,96734.03
2022-09-26T08:18:54.569Z,96742.06
2022-09-26T08:21:25.696Z,96741.56
2022-09-26T08:23:54.038Z,96732.50
2022-09-26T08:26:28.941Z,96737.28
2022-09-26T08:29:00.673Z,96735.88
2022-09-26T08:31:34.975Z,96744.25
2022-09-26T08:34:12.112Z,96736.91
2022-09-26T08:37:34.390Z,96740.88
2022-09-26T08:40:34.251Z,96737.19
2022-09-26T08:43:47.263Z,96736.41
2022-09-26T08:47:02.333Z,96743.53
2022-09-26T08:50:00.583Z,96737.38
2022-09-26T08:53:10.781Z,96732.22
2022-09-26T08:55:58.349Z,96730.63
2022-09-26T08:58:47.208Z,96722.94
2022-09-26T09:01:46.183Z,96712.16
2022-09-26T09:04:42.309Z,96707.63
2022-09-26T09:07:24.998Z,96697.38
2022-09-26T09:10:03.629Z,96697.78
2022-09-26T09:13:15.873Z,96695.28
2022-09-26T09:16:13.934Z,96693.53
2022-09-26T09:19:06.892Z,96699.66
2022-09-26T09:22:02.751Z,96681.31
2022-09-26T09:24:55.274Z,96674.34
2022-09-26T09:30:45.680Z,96692.19
2022-09-26T09:33:23.333Z,96685.69
2022-09-26T09:36:00.397Z,96686.44
2022-09-26T09:38:38.257Z,96678.81
2022-09-26T09:41:39.907Z,96681.31
2022-09-26T09:44:43.126Z,96697.34
2022-09-26T09:47:18.920Z,96689.72
2022-09-26T09:49:55.224Z,96687.72
2022-09-26T09:52:52.662Z,96681.91
2022-09-26T09:56:16.713Z,96691.16
2022-09-26T09:59:19.625Z,96694.75
2022-09-26T10:02:23.666Z,96692.94
2022-09-26T10:05:41.726Z,96696.06
2022-09-26T10:08:43.439Z,96699.28
2022-09-26T10:11:44.956Z,96705.84
2022-09-26T10:14:29.761Z,96708.59
2022-09-26T10:17:18.196Z,96701.50
2022-09-26T10:19:46.951Z,96702.22
2022-09-26T10:22:48.122Z,96694.59
2022-09-26T10:25:26.834Z,96680.31
2022-09-26T10:27:58.400Z,96685.44
2022-09-26T10:30:35.326Z,96684.00
2022-09-26T10:33:06.832Z,96690.63
2022-09-26T10:35:48.142Z,96696.91
2022-09-26T10:38:31.268Z,96691.28
2022-09-26T10:41:05.777Z,96693.63
2022-09-26T10:43:38.683Z,96695.00
2022-09-26T10:46:27.624Z,96696.63
2022-09-26T10:49:02.640Z,96696.41
2022-09-26T10:51:42.828Z,96695.72
2022-09-26T10:54:20.220Z,96705.09
2022-09-26T10:57:14.031Z,96694.66
2022-09-26T10:59:44.209Z,96700.91
2022-09-26T11:02:22.822Z,96705.13
2022-09-26T11:05:20.656Z,96704.59
2022-09-26T11:07:52.366Z,96695.63
2022-09-26T11:10:34.470Z,96676.59
2022-09-26T11:13:19.214Z,96679.75
2022-09-26T11:16:01.470Z,96686.72
2022-09-26T11:18:46.485Z,96679.03
2022-09-26T11:21:43.715Z,96680.22
2022-09-26T11:24:30.376Z,96688.53
2022-09-26T11:27:27.151Z,96677.06
2022-09-26T11:30:21.044Z,96661.06
2022-09-26T11:32:57.182Z,96664.66
2022-09-26T11:35:53.999Z,96670.31
2022-09-26T11:38:51.158Z,96666.13
2022-09-26T11:42:01.300Z,96661.81
2022-09-26T11:44:44.860Z,96657.88
2022-09-26T11:47:54.545Z,96658.09
2022-09-26T11:51:15.838Z,96656.47
2022-09-26T11:54:08.157Z,96648.88
2022-09-26T11:57:03.598Z,96647.41
2022-09-26T11:59:37.595Z,96629.22
2022-09-26T12:02:35.450Z,96623.75
2022-09-26T12:05:14.270Z,96601.81
2022-09-26T12:07:57.550Z,96587.66
2022-09-26T12:10:58.381Z,96592.94
2022-09-26T12:13:53.689Z,96598.53
2022-09-26T12:17:00.959Z,96591.03
2022-09-26T12:20:08.186Z,96571.50
2022-09-26T12:23:06.373Z,96558.31
2022-09-26T12:26:05.808Z,96550.97
2022-09-26T12:29:37.467Z,96540.84
2022-09-26T12:32:41.812Z,96550.03
2022-09-26T12:35:38.176Z,96550.03
2022-09-26T12:38:56.382Z,96542.41
2022-09-26T12:42:14.511Z,96543.94
2022-09-26T12:45:43.876Z,96565.66
2022-09-26T12:48:36.834Z,96571.97
2022-09-26T12:51:47.212Z,96583.41
2022-09-26T12:54:36.849Z,96585.19
2022-09-26T12:57:44.322Z,96583.03
2022-09-26T13:00:24.129Z,96580.78
2022-09-26T13:03:35.629Z,96586.41
2022-09-26T13:07:17.782Z,96591.00
2022-09-26T13:09:55.676Z,96583.22
2022-09-26T13:12:36.170Z,96575.00
2022-09-26T13:16:00.399Z,96572.78
2022-09-26T13:18:43.616Z,96575.38
2022-09-26T13:21:19.627Z,96565.88
2022-09-26T13:24:08.729Z,96576.06
2022-09-26T13:26:48.478Z,96570.31
2022-09-26T13:29:33.853Z,96572.94
2022-09-26T13:32:17.522Z,96574.03
2022-09-26T13:35:04.891Z,96573.75
2022-09-26T13:38:14.472Z,96583.34
2022-09-26T13:40:59.804Z,96577.28
2022-09-26T13:44:09.296Z,96561.25
2022-09-26T13:47:04.611Z,96552.59
2022-09-26T13:49:43.115Z,96553.16
2022-09-26T13:52:28.180Z,96538.16
2022-09-26T13:55:03.013Z,96539.75
2022-09-26T13:57:36.061Z,96539.94
2022-09-26T14:00:32.321Z,96551.00
2022-09-26T14:04:08.022Z,96555.53
2022-09-26T14:06:35.452Z,96537.31
2022-09-26T14:09:28.869Z,96536.44
2022-09-26T14:12:59.825Z,96542.09
2022-09-26T14:15:49.175Z,96533.91
2022-09-26T14:18:47.648Z,96540.13
2022-09-26T14:21:39.070Z,96536.88
2022-09-26T14:24:44.943Z,96545.09
2022-09-26T14:27:12.644Z,96558.00
2022-09-26T14:29:46.666Z,96558.25
2022-09-26T14:32:28.279Z,96544.53
2022-09-26T14:35:03.036Z,96545.94
2022-09-26T14:37:42.565Z,96575.47
2022-09-26T14:40:33.889Z,96578.03
2022-09-26T14:43:33.483Z,96589.06
2022-09-26T14:46:16.038Z,96589.34
2022-09-26T14:48:47.533Z,96584.84
2022-09-26T14:51:29.860Z,96585.03
2022-09-26T14:54:07.456Z,96581.63
2022-09-26T14:56:43.152Z,96584.69
2022-09-26T14:59:18.837Z,96575.53
2022-09-26T15:01:47.975Z,96574.69
2022-09-26T15:04:21.616Z,96577.56
2022-09-26T15:07:02.026Z,96574.63
2022-09-26T15:10:25.528Z,96573.84
2022-09-26T15:13:10.046Z,96565.47
2022-09-26T15:16:17.547Z,96550.13
2022-09-26T15:19:11.763Z,96551.66
2022-09-26T15:22:21.838Z,96542.88
2022-09-26T15:25:08.856Z,96544.47
2022-09-26T15:27:45.223Z,96548.75
2022-09-26T15:30:32.867Z,96563.56
2022-09-26T15:33:05.486Z,96559.19
2022-09-26T15:35:35.995Z,96557.16
2022-09-26T15:38:14.102Z,96562.69
2022-09-26T15:40:41.617Z,96557.00
2022-09-26T15:43:24.029Z,96532.75
2022-09-26T15:46:04.550Z,96532.13
2022-09-26T15:48:35.222Z,96535.31
2022-09-26T15:51:29.358Z,96535.84
2022-09-26T15:54:22.435Z,96547.69
2022-09-26T15:57:03.479Z,96552.59
2022-09-26T15:59:47.034Z,96554.53
2022-09-26T16:02:37.212Z,96544.81
2022-09-26T16:05:12.720Z,96557.78
2022-09-26T16:07:50.352Z,96551.78
2022-09-26T16:10:35.664Z,96557.94
2022-09-26T16:13:06.662Z,96568.50
2022-09-26T16:15:35.888Z,96580.63
2022-09-26T16:18:09.505Z,96565.00
2022-09-26T16:20:39.125Z,96566.88
2022-09-26T16:23:27.544Z,96561.78
2022-09-26T16:25:59.391Z,96558.66
2022-09-26T16:28:45.416Z,96564.19
2022-09-26T16:31:38.817Z,96560.03
2022-09-26T16:34:44.475Z,96553.69
2022-09-26T16:37:25.586Z,96550.16
2022-09-26T16:40:01.151Z,96547.06
2022-09-26T16:42:35.135Z,96545.84
2022-09-26T16:45:14.636Z,96535.56
2022-09-26T16:47:52.397Z,96532.63
2022-09-26T16:50:34.678Z,96521.38
2022-09-26T16:53:10.996Z,96531.00
2022-09-26T16:55:42.514Z,96528.13
2022-09-26T16:58:17.900Z,96536.44
2022-09-26T17:01:18.253Z,96541.94
2022-09-26T17:03:57.232Z,96541.09
2022-09-26T17:06:30.141Z,96547.78
2022-09-26T17:09:16.495Z,96543.31
2022-09-26T17:11:49.381Z,96547.34
2022-09-26T17:14:30.059Z,96550.13
2022-09-26T17:17:02.179Z,96552.59
2022-09-26T17:19:46.562Z,96542.41
2022-09-26T17:22:22.852Z,96532.06
2022-09-26T17:24:54.684Z,96535.47
2022-09-26T17:27:34.060Z,96538.94
2022-09-26T17:30:12.120Z,96553.31
2022-09-26T17:32:49.924Z,96549.91
2022-09-26T17:35:31.007Z,96550.75
2022-09-26T17:38:01.973Z,96547.13
2022-09-26T17:40:35.812Z,96549.91
2022-09-26T17:43:06.469Z,96549.84
2022-09-26T17:45:46.105Z,96542.09
2022-09-26T17:48:34.772Z,96540.00
2022-09-26T17:51:10.017Z,96535.69
2022-09-26T17:53:50.099Z,96536.97
2022-09-26T17:56:25.838Z,96531.88
2022-09-26T17:58:59.123Z,96528.06
2022-09-26T18:01:35.493Z,96529.03
2022-09-26T18:04:07.781Z,96522.28
2022-09-26T18:06:37.756Z,96536.56
2022-09-26T18:09:11.806Z,96537.91
2022-09-26T18:11:42.474Z,96531.28
2022-09-26T18:14:18.280Z,96520.00
2022-09-26T18:16:52.436Z,96520.69
2022-09-26T18:19:22.133Z,96516.13
2022-09-26T18:21:57.598Z,96507.59
2022-09-26T18:24:34.954Z,96509.31
2022-09-26T18:27:07.953Z,96500.00
2022-09-26T18:29:41.863Z,96503.78
2022-09-26T18:32:34.799Z,96504.41
2022-09-26T18:35:03.130Z,96502.09
2022-09-26T18:37:33.493Z,96513.50
2022-09-26T18:40:04.429Z,96505.66
2022-09-26T18:42:34.762Z,96497.19
2022-09-26T18:45:08.461Z,96493.50
2022-09-26T18:47:46.515Z,96502.13
2022-09-26T18:50:30.930Z,96501.50
2022-09-26T18:53:00.154Z,96498.59
2022-09-26T18:55:49.653Z,96513.31
2022-09-26T18:58:27.356Z,96502.53
2022-09-26T19:01:15.321Z,96514.00
2022-09-26T19:03:49.249Z,96524.78
2022-09-26T19:06:44.217Z,96529.84
2022-09-26T19:09:25.168Z,96525.78
2022-09-26T19:11:56.890Z,96530.66
2022-09-26T19:14:42.428Z,96535.22
2022-09-26T19:17:12.859Z,96540.34
2022-09-26T19:19:41.987Z,96540.78
2022-09-26T19:22:19.993Z,96539.56
2022-09-26T19:25:02.952Z,96549.53
2022-09-26T19:27:50.565Z,96553.56
2022-09-26T19:30:25.015Z,96555.13
2022-09-26T19:33:02.578Z,96548.06
2022-09-26T19:35:42.016Z,96548.09
2022-09-26T19:38:28.987Z,96555.31
2022-09-26T19:40:59.940Z,96559.25
2022-09-26T19:43:28.443Z,96562.31
2022-09-26T19:46:02.941Z,96559.78
2022-09-26T19:48:38.914Z,96559.28
2022-09-26T19:51:15.436Z,96565.06
2022-09-26T19:53:48.916Z,96547.91
2022-09-26T19:56:20.029Z,96550.81
2022-09-26T19:58:51.277Z,96539.41
2022-09-26T20:01:25.995Z,96538.16
2022-09-26T20:03:55.119Z,96546.88
2022-09-26T20:06:30.075Z,96537.91
2022-09-26T20:09:02.601Z,96538.03
2022-09-26T20:11:32.848Z,96545.47
2022-09-26T20:14:20.498Z,96546.16
2022-09-26T20:16:58.558Z,96542.72
2022-09-26T20:19:38.308Z,96529.81
2022-09-26T20:22:18.344Z,96529.50
2022-09-26T20:24:50.161Z,96522.66
2022-09-26T20:27:26.811Z,96526.31
2022-09-26T20:30:15.131Z,96531.38
2022-09-26T20:32:50.497Z,96520.75
2022-09-26T20:35:23.930Z,96522.91
2022-09-26T20:37:56.046Z,96529.38
2022-09-26T20:40:25.754Z,96524.91
2022-09-26T20:43:04.363Z,96528.69
2022-09-26T20:45:41.233Z,96517.38
2022-09-26T20:48:25.691Z,96522.75
2022-09-26T20:50:58.716Z,96516.72
2022-09-26T20:53:28.737Z,96513.97
2022-09-26T20:55:58.691Z,96515.34
2022-09-26T20:58:27.889Z,96512.00
2022-09-26T21:00:56.443Z,96509.91
2022-09-26T21:03:32.161Z,96511.56
2022-09-26T21:06:22.698Z,96510.19
2022-09-26T21:09:07.171Z,96505.06
2022-09-26T21:11:41.532Z,96501.81
2022-09-26T21:14:09.534Z,96500.34
2022-09-26T21:16:58.530Z,96496.81
2022-09-26T21:19:33.746Z,96493.59
2022-09-26T21:22:06.952Z,96483.47
2022-09-26T21:24:55.551Z,96480.72
2022-09-26T21:27:31.309Z,96467.09
2022-09-26T21:30:04.384Z,96464.78
2022-09-26T21:32:37.525Z,96448.53
2022-09-26T21:35:13.337Z,96430.53
2022-09-26T21:38:08.015Z,96423.25
2022-09-26T21:40:47.558Z,96419.84
2022-09-26T21:43:23.066Z,96402.50
2022-09-26T21:48:37.471Z,96399.78
2022-09-26T21:51:31.602Z,96384.88
2022-09-26T21:54:34.943Z,96364.78
2022-09-26T21:57:38.010Z,96367.16
2022-09-26T22:00:22.272Z,96369.28
2022-09-26T22:02:49.864Z,96359.91
2022-09-26T22:05:18.624Z,96348.72
2022-09-26T22:07:48.547Z,96344.53
2022-09-26T22:10:32.827Z,96353.81
2022-09-26T22:13:16.372Z,96348.78
2022-09-26T22:15:52.896Z,96347.69
2022-09-26T22:18:32.157Z,96335.44
2022-09-26T22:21:04.811Z,96328.09
2022-09-26T22:23:41.048Z,96307.28
2022-09-26T22:26:14.336Z,96298.88
2022-09-26T22:28:50.539Z,96280.63
2022-09-26T22:31:27.377Z,96274.06
2022-09-26T22:33:59.569Z,96270.75
2022-09-26T22:36:35.550Z,96274.13
2022-09-26T22:39:03.927Z,96275.25
2022-09-26T22:41:34.410Z,96279.59
2022-09-26T22:44:13.087Z,96283.38
2022-09-26T22:46:43.751Z,96290.50
2022-09-26T22:49:17.078Z,96294.41
2022-09-26T22:51:48.762Z,96300.25
2022-09-26T22:54:47.211Z,96299.84
2022-09-26T22:57:42.777Z,96299.81
2022-09-26T23:00:25.083Z,96299.63
2022-09-26T23:03:00.738Z,96305.97
2022-09-26T23:05:35.604Z,96309.38
2022-09-26T23:13:47.648Z,96293.72
2022-09-26T23:16:35.184Z,96288.22
2022-09-26T23:19:06.302Z,96284.97
2022-09-26T23:21:41.779Z,96288.69
2022-09-26T23:24:11.765Z,96294.84
2022-09-26T23:26:54.921Z,96290.94
2022-09-26T23:29:22.348Z,96286.63
2022-09-26T23:31:51.099Z,96281.97
2022-09-26T23:34:21.156Z,96278.38
2022-09-26T23:36:51.447Z,96274.47
2022-09-26T23:39:24.582Z,96279.38
2022-09-26T23:42:04.995Z,96270.38
2022-09-26T23:44:43.955Z,96271.25
2022-09-26T23:47:23.453Z,96277.94
2022-09-26T23:49:55.456Z,96266.72
2022-09-26T23:52:34.593Z,96250.88
2022-09-26T23:55:02.321Z,96264.94
2022-09-26T23:57:37.988Z,96265.59
